Time;durP1;ratioP1;P1;durP2;ratioP2;P2;SDS_P1;SDS_P2;PMS_P1;PMS_P2;Temp;Humidity;BMP_temperature;BMP_pressure;BME280_temperature;BME280_humidity;BME280_pressure;Samples;Min_cycle;Max_cycle;Signal;HPM_P1;HPM_P2
2022/07/12 00:02:19;;;;;;;;;;;;;;;10.85;76.51;101072.72;1769090;81;21161;-77
2022/07/12 00:04:45;;;;;;;;;;;;;;;10.85;76.56;101076.72;1757799;81;20202;-77
2022/07/12 00:07:11;;;;;;;;;;;;;;;10.86;76.55;101072.22;1762011;81;20170;-78
2022/07/12 00:09:37;;;;;;;;;;;;;;;10.83;76.57;101076.05;1762451;80;20604;-78
2022/07/12 00:12:03;;;;;;;;;;;;;;;10.84;76.58;101071.52;1766322;80;20172;-78
2022/07/12 00:14:29;;;;;;;;;;;;;;;10.86;76.59;101072.22;1771025;81;21135;-78
2022/07/12 00:16:55;;;;;;;;;;;;;;;10.86;76.59;101077.55;1746807;82;20259;-78
2022/07/12 00:19:21;;;;;;;;;;;;;;;10.81;76.62;101071.84;1763726;81;20243;-78
2022/07/12 00:21:47;;;;;;;;;;;;;;;10.75;76.66;101075.97;1768028;81;20332;-78
2022/07/12 00:24:12;;;;;;;;;;;;;;;10.74;76.70;101070.77;1773244;81;20159;-78
2022/07/12 00:26:38;;;;;;;;;;;;;;;10.76;76.71;101072.81;1774137;81;21783;-78
2022/07/12 00:29:05;;;;;;;;;;;;;;;10.72;76.73;101075.44;1774148;81;20190;-78
2022/07/12 00:31:31;;;;;;;;;;;;;;;10.70;76.73;101072.08;1772727;80;20157;-78
2022/07/12 00:33:58;;;;;;;;;;;;;;;10.67;76.76;101072.38;1753174;80;20237;-78
2022/07/12 00:36:24;;;;;;;;;;;;;;;10.67;76.79;101078.56;1761662;81;20489;-78
2022/07/12 00:38:50;;;;;;;;;;;;;;;10.68;76.81;101082.07;1770798;81;21179;-78
2022/07/12 00:41:16;;;;;;;;;;;;;;;10.66;76.83;101084.07;1763340;80;20175;-78
2022/07/12 00:43:42;;;;;;;;;;;;;;;10.64;76.86;101086.03;1773478;81;20165;-78
2022/07/12 00:46:08;;;;;;;;;;;;;;;10.61;76.87;101089.02;1773952;80;20191;-78
2022/07/12 00:48:34;;;;;;;;;;;;;;;10.57;76.88;101086.30;1773177;81;20274;-78
2022/07/12 00:51:00;;;;;;;;;;;;;;;10.57;76.90;101094.30;1771079;80;21142;-78
2022/07/12 00:53:26;;;;;;;;;;;;;;;10.56;76.92;101093.95;1771197;81;20184;-78
2022/07/12 00:55:54;;;;;;;;;;;;;;;10.56;76.95;101099.28;1747843;81;20183;-78
2022/07/12 00:58:22;;;;;;;;;;;;;;;10.55;76.97;101101.14;1766763;81;20156;-78
2022/07/12 01:00:48;;;;;;;;;;;;;;;10.56;76.96;101101.95;1769775;81;20169;-78
2022/07/12 01:03:14;;;;;;;;;;;;;;;10.58;76.98;101098.66;1761910;81;21148;-78
2022/07/12 01:05:40;;;;;;;;;;;;;;;10.57;76.98;101096.48;1761626;81;20460;-78
2022/07/12 01:08:06;;;;;;;;;;;;;;;10.57;77.02;101104.48;1764704;81;20183;-78
2022/07/12 01:10:33;;;;;;;;;;;;;;;10.58;77.00;101095.98;1764926;80;20160;-78
2022/07/12 01:12:58;;;;;;;;;;;;;;;10.56;77.01;101093.95;1772909;81;20159;-77
2022/07/12 01:15:24;;;;;;;;;;;;;;;10.55;77.03;101094.97;1760809;81;21152;-77
2022/07/12 01:17:50;;;;;;;;;;;;;;;10.56;77.05;101096.62;1739553;81;20202;-78
2022/07/12 01:20:16;;;;;;;;;;;;;;;10.57;77.05;101095.64;1766004;80;20279;-78
2022/07/12 01:22:51;;;;;;;;;;;;;;;10.57;77.08;101095.64;1771284;81;20177;-78
2022/07/12 01:25:17;;;;;;;;;;;;;;;10.56;77.08;101096.12;1716589;82;20471;-77
2022/07/12 01:27:43;;;;;;;;;;;;;;;10.55;77.10;101098.48;1729760;81;21176;-77
2022/07/12 01:30:09;;;;;;;;;;;;;;;10.51;77.13;101092.61;1766322;81;20195;-78
2022/07/12 01:32:35;;;;;;;;;;;;;;;10.53;77.14;101095.95;1768675;81;20173;-77
2022/07/12 01:35:03;;;;;;;;;;;;;;;10.55;77.12;101098.48;1771193;81;20707;-78
2022/07/12 01:37:35;;;;;;;;;;;;;;;10.60;77.12;101092.66;1769859;81;20141;-78
2022/07/12 01:40:01;;;;;;;;;;;;;;;10.65;77.12;101094.39;1759564;80;21038;-77
2022/07/12 01:42:28;;;;;;;;;;;;;;;10.68;77.10;101090.08;1753372;81;20196;-77
2022/07/12 01:44:54;;;;;;;;;;;;;;;10.72;77.10;101088.78;1760422;81;20201;-78
2022/07/12 01:47:21;;;;;;;;;;;;;;;10.72;77.10;101088.78;1769414;81;20456;-78
2022/07/12 01:49:47;;;;;;;;;;;;;;;10.73;77.11;101086.47;1763552;80;20531;-78
2022/07/12 01:52:13;;;;;;;;;;;;;;;10.74;77.13;101084.12;1770866;81;21145;-78
2022/07/12 01:54:39;;;;;;;;;;;;;;;10.79;77.13;101085.84;1769398;81;20165;-78
2022/07/12 01:57:05;;;;;;;;;;;;;;;10.81;77.15;101087.84;1767218;81;20250;-77
2022/07/12 01:59:31;;;;;;;;;;;;;;;10.85;77.16;101091.39;1749173;80;20161;-77
2022/07/12 02:01:57;;;;;;;;;;;;;;;10.90;77.17;101093.61;1758243;81;20171;-78
2022/07/12 02:04:23;;;;;;;;;;;;;;;10.92;77.15;101090.27;1763056;81;21125;-78
2022/07/12 02:06:49;;;;;;;;;;;;;;;10.96;77.17;101092.98;1766219;81;20246;-77
2022/07/12 02:09:15;;;;;;;;;;;;;;;11.00;77.17;101089.84;1764006;81;20166;-78
2022/07/12 02:11:41;;;;;;;;;;;;;;;11.05;77.18;101093.36;1765018;81;20215;-78
2022/07/12 02:14:08;;;;;;;;;;;;;;;11.10;77.17;101087.56;1749165;81;20147;-77
2022/07/12 02:16:34;;;;;;;;;;;;;;;11.14;77.18;101097.78;1770704;81;21163;-78
2022/07/12 02:18:59;;;;;;;;;;;;;;;11.22;77.16;101089.00;1770147;81;20210;-78
2022/07/12 02:21:26;;;;;;;;;;;;;;;11.29;77.13;101089.55;1775156;80;20222;-78
2022/07/12 02:23:52;;;;;;;;;;;;;;;11.33;77.13;101084.20;1777950;80;20455;-78
2022/07/12 02:26:18;;;;;;;;;;;;;;;11.38;77.09;101082.41;1770895;80;20338;-78
2022/07/12 02:28:44;;;;;;;;;;;;;;;11.42;77.11;101087.28;1778735;80;21189;-78
2022/07/12 02:31:10;;;;;;;;;;;;;;;11.46;77.11;101084.64;1778872;80;20251;-78
2022/07/12 02:33:36;;;;;;;;;;;;;;;11.53;77.07;101083.50;1778612;80;20297;-78
2022/07/12 02:36:02;;;;;;;;;;;;;;;11.60;77.07;101085.03;1777777;80;20163;-78
2022/07/12 02:38:28;;;;;;;;;;;;;;;11.65;77.05;101081.36;1774156;80;20140;-78
2022/07/12 02:40:54;;;;;;;;;;;;;;;11.72;77.04;101079.76;1763332;80;21848;-78
2022/07/12 02:43:21;;;;;;;;;;;;;;;11.77;77.05;101078.79;1770897;80;20182;-78
2022/07/12 02:45:47;;;;;;;;;;;;;;;11.83;77.00;101083.48;1757997;80;20532;-78
2022/07/12 02:48:13;;;;;;;;;;;;;;;11.87;77.01;101085.68;1769910;80;20222;-78
2022/07/12 02:50:40;;;;;;;;;;;;;;;11.91;76.99;101086.20;1778675;80;20147;-78
2022/07/12 02:53:06;;;;;;;;;;;;;;;11.96;76.96;101089.23;1751676;80;21798;-78
2022/07/12 02:55:32;;;;;;;;;;;;;;;11.99;76.93;101088.41;1774187;80;20452;-78
2022/07/12 02:57:58;;;;;;;;;;;;;;;12.03;76.93;101087.59;1728013;80;20184;-78
2022/07/12 03:00:24;;;;;;;;;;;;;;;12.06;76.90;101086.42;1760753;80;20175;-78
2022/07/12 03:02:50;;;;;;;;;;;;;;;12.07;76.89;101084.90;1770144;80;20468;-78
2022/07/12 03:05:16;;;;;;;;;;;;;;;12.08;76.90;101090.59;1756391;80;21155;-78
2022/07/12 03:07:41;;;;;;;;;;;;;;;12.04;76.88;101081.22;1763227;80;20226;-78
2022/07/12 03:10:08;;;;;;;;;;;;;;;12.01;76.88;101084.22;1778867;80;20163;-78
2022/07/12 03:12:34;;;;;;;;;;;;;;;11.98;76.87;101088.56;1713112;80;20444;-78
2022/07/12 03:15:00;;;;;;;;;;;;;;;11.96;76.89;101085.22;1775699;80;20203;-78
2022/07/12 03:17:26;;;;;;;;;;;;;;;11.98;76.88;101088.06;1767869;80;21093;-78
2022/07/12 03:19:52;;;;;;;;;;;;;;;12.00;76.84;101090.56;1764379;80;20261;-78
2022/07/12 03:22:18;;;;;;;;;;;;;;;12.01;76.86;101085.56;1778422;80;20782;-78
2022/07/12 03:24:44;;;;;;;;;;;;;;;12.02;76.82;101089.91;1719390;80;20166;-78
2022/07/12 03:27:10;;;;;;;;;;;;;;;12.01;76.82;101087.73;1778834;80;20191;-78
2022/07/12 03:29:36;;;;;;;;;;;;;;;12.03;76.84;101094.27;1778075;80;21160;-78
2022/07/12 03:32:03;;;;;;;;;;;;;;;12.05;76.82;101098.10;1763232;80;20550;-78
2022/07/12 03:34:29;;;;;;;;;;;;;;;12.06;76.81;101096.61;1778578;80;20424;-78
2022/07/12 03:36:55;;;;;;;;;;;;;;;12.08;76.81;101098.61;1778500;80;20168;-78
2022/07/12 03:39:21;;;;;;;;;;;;;;;12.11;76.78;101098.28;1778763;80;20179;-78
2022/07/12 03:41:47;;;;;;;;;;;;;;;12.14;76.77;101103.30;1774771;80;21160;-78
2022/07/12 03:44:13;;;;;;;;;;;;;;;12.14;76.76;101096.62;1772551;80;20293;-78
2022/07/12 03:46:39;;;;;;;;;;;;;;;12.16;76.71;101099.14;1778649;80;20149;-78
2022/07/12 03:49:05;;;;;;;;;;;;;;;12.17;76.74;101101.67;1756550;80;20159;-78
2022/07/12 03:51:31;;;;;;;;;;;;;;;12.21;76.70;101098.98;1752026;80;20176;-78
2022/07/12 03:53:56;;;;;;;;;;;;;;;12.25;76.72;101098.15;1764409;80;21702;-78
2022/07/12 03:59:07;;;;;;;;;;;;;;;12.26;76.66;101092.65;1764315;80;20476;-78
2022/07/12 04:01:33;;;;;;;;;;;;;;;12.24;76.63;101102.69;1777619;80;20175;-78
2022/07/12 04:03:59;;;;;;;;;;;;;;;12.27;76.65;101094.34;1778562;80;20143;-78
2022/07/12 04:06:24;;;;;;;;;;;;;;;12.28;76.62;101091.97;1778085;80;21138;-78
2022/07/12 04:08:50;;;;;;;;;;;;;;;12.31;76.61;101092.17;1778109;80;20186;-78
2022/07/12 04:11:16;;;;;;;;;;;;;;;12.35;76.62;101096.20;1703773;82;20246;-78
2022/07/12 04:13:42;;;;;;;;;;;;;;;12.37;76.62;101093.69;1769376;80;20226;-78
2022/07/12 04:16:08;;;;;;;;;;;;;;;12.39;76.59;101095.68;1778755;80;20290;-78
2022/07/12 04:18:36;;;;;;;;;;;;;;;12.41;76.57;101095.03;1778877;80;21077;-78
2022/07/12 04:21:02;;;;;;;;;;;;;;;12.45;76.55;101099.02;1778475;80;20168;-79
2022/07/12 04:23:27;;;;;;;;;;;;;;;12.48;76.54;101096.05;1777987;80;20210;-79
2022/07/12 04:25:53;;;;;;;;;;;;;;;12.52;76.52;101094.69;1778535;80;20170;-79
2022/07/12 04:28:19;;;;;;;;;;;;;;;12.53;76.49;101096.37;1773023;80;20250;-79
2022/07/12 04:30:46;;;;;;;;;;;;;;;12.59;76.46;101102.08;1760754;80;21723;-79
2022/07/12 04:33:14;;;;;;;;;;;;;;;12.60;76.45;101101.05;1774884;80;20160;-79
2022/07/12 04:35:40;;;;;;;;;;;;;;;12.64;76.43;101103.23;1769784;80;20313;-79
2022/07/12 04:38:07;;;;;;;;;;;;;;;12.67;76.39;101100.23;1773137;80;20320;-79
2022/07/12 04:40:33;;;;;;;;;;;;;;;12.69;76.35;101102.25;1777965;80;20190;-79
2022/07/12 04:42:59;;;;;;;;;;;;;;;12.72;76.33;101098.39;1772004;80;21149;-79
2022/07/12 04:45:26;;;;;;;;;;;;;;;12.76;76.30;101101.92;1771621;80;20265;-79
2022/07/12 04:47:52;;;;;;;;;;;;;;;12.82;76.28;101105.76;1772392;80;20148;-79
2022/07/12 04:50:18;;;;;;;;;;;;;;;12.91;76.25;101102.09;1775641;80;20182;-79
2022/07/12 04:52:43;;;;;;;;;;;;;;;13.00;76.21;101093.05;1773115;80;20242;-79
2022/07/12 04:55:10;;;;;;;;;;;;;;;13.09;76.16;101090.70;1778694;80;21139;-79
2022/07/12 04:57:35;;;;;;;;;;;;;;;13.20;76.15;101097.06;1778210;80;20221;-79
2022/07/12 05:00:07;;;;;;;;;;;;;;;13.31;76.09;101087.33;1777190;80;20176;-79
2022/07/12 05:02:33;;;;;;;;;;;;;;;13.44;76.02;101096.20;1773926;80;20129;-79
2022/07/12 05:04:59;;;;;;;;;;;;;;;13.58;75.97;101087.95;1747386;80;20167;-79
2022/07/12 05:07:25;;;;;;;;;;;;;;;13.75;75.90;101091.73;1778699;80;21828;-79
2022/07/12 05:09:52;;;;;;;;;;;;;;;14.16;75.79;101091.03;1777715;80;20210;-79
2022/07/12 05:12:19;;;;;;;;;;;;;;;14.46;75.68;101094.75;1777285;80;20177;-79
2022/07/12 05:14:46;;;;;;;;;;;;;;;14.77;75.56;101097.38;1778751;80;20117;-79
2022/07/12 05:17:12;;;;;;;;;;;;;;;14.84;75.43;101094.30;1778647;80;20783;-79
2022/07/12 05:19:39;;;;;;;;;;;;;;;15.09;75.32;101101.13;1778971;80;20996;-79
2022/07/12 05:22:14;;;;;;;;;;;;;;;15.34;75.10;101101.73;1768636;80;20177;-79
2022/07/12 05:24:40;;;;;;;;;;;;;;;15.39;74.93;101098.80;1766788;80;20163;-79
2022/07/12 05:27:08;;;;;;;;;;;;;;;15.31;74.66;101097.53;1768057;80;20144;-79
2022/07/12 05:29:37;;;;;;;;;;;;;;;15.26;74.48;101099.11;1764834;81;20173;-79
2022/07/12 05:32:05;;;;;;;;;;;;;;;15.30;74.28;101095.89;1756892;81;20169;-79
2022/07/12 05:34:35;;;;;;;;;;;;;;;15.34;74.11;101094.47;1694949;81;20174;-79
2022/07/12 05:37:03;;;;;;;;;;;;;;;15.37;73.97;101101.36;1754986;81;20198;-80
2022/07/12 05:39:33;;;;;;;;;;;;;;;15.35;73.75;101101.53;1762797;81;20157;-79
2022/07/12 05:42:01;;;;;;;;;;;;;;;15.32;73.57;101096.52;1765283;81;20479;-79
2022/07/12 05:44:31;;;;;;;;;;;;;;;15.39;73.44;101102.83;1726194;83;20160;-79
2022/07/12 05:46:59;;;;;;;;;;;;;;;15.45;73.22;101096.72;1769193;81;20180;-80
2022/07/12 05:49:38;;;;;;;;;;;;;;;15.67;73.08;101094.16;1766440;81;20196;-79
2022/07/12 05:54:50;;;;;;;;;;;;;;;16.60;72.65;101091.08;1756220;81;20603;-79
2022/07/12 05:57:26;;;;;;;;;;;;;;;16.67;72.24;101087.94;1770501;80;20434;-80
2022/07/12 06:00:01;;;;;;;;;;;;;;;16.74;71.93;101096.91;1742211;80;20178;-79
2022/07/12 06:02:29;;;;;;;;;;;;;;;16.92;71.59;101095.91;1755302;80;20142;-80
2022/07/12 06:04:59;;;;;;;;;;;;;;;17.02;71.35;101082.13;1752397;81;20159;-80
2022/07/12 06:07:43;;;;;;;;;;;;;;;17.03;70.99;101081.08;1723231;82;20184;-80
2022/07/12 06:10:12;;;;;;;;;;;;;;;17.17;70.79;101082.84;1751210;81;20174;-80
2022/07/12 06:12:45;;;;;;;;;;;;;;;17.85;70.57;101077.17;1745144;81;20181;-80
2022/07/12 06:15:16;;;;;;;;;;;;;;;18.23;70.00;101072.95;1746840;81;20142;-80
2022/07/12 06:17:47;;;;;;;;;;;;;;;18.58;69.62;101070.98;1725160;81;20165;-80
2022/07/12 06:20:17;;;;;;;;;;;;;;;19.01;69.20;101066.03;1737342;81;20176;-80
2022/07/12 06:22:45;;;;;;;;;;;;;;;19.32;68.70;101064.84;1750339;80;20174;-80
2022/07/12 06:25:13;;;;;;;;;;;;;;;19.48;68.16;101066.84;1741209;82;20198;-81
2022/07/12 06:27:40;;;;;;;;;;;;;;;19.61;67.61;101068.15;1735071;82;20170;-81
2022/07/12 06:30:07;;;;;;;;;;;;;;;19.70;66.95;101065.54;1745089;82;20661;-81
2022/07/12 06:32:41;;;;;;;;;;;;;;;19.77;66.45;101067.16;1745865;80;20139;-80
2022/07/12 06:35:07;;;;;;;;;;;;;;;19.88;65.92;101061.08;1712034;81;20665;-80
2022/07/12 06:37:34;;;;;;;;;;;;;;;20.05;65.48;101067.37;1722215;81;20246;-80
2022/07/12 06:40:00;;;;;;;;;;;;;;;20.10;65.01;101066.19;1761542;81;20152;-81
2022/07/12 06:42:25;;;;;;;;;;;;;;;20.12;64.45;101066.30;1756613;81;20204;-81
2022/07/12 06:44:51;;;;;;;;;;;;;;;20.14;64.16;101065.55;1761277;80;20171;-81
2022/07/12 06:47:17;;;;;;;;;;;;;;;20.30;63.88;101061.55;1767384;81;21796;-81
2022/07/12 06:49:43;;;;;;;;;;;;;;;20.47;63.55;101064.56;1764085;80;20786;-81
2022/07/12 06:52:09;;;;;;;;;;;;;;;20.40;63.00;101064.61;1758582;80;20175;-81
2022/07/12 06:54:35;;;;;;;;;;;;;;;20.38;62.52;101062.62;1733629;80;20443;-81
2022/07/12 06:57:01;;;;;;;;;;;;;;;20.42;62.29;101059.80;1759947;81;20178;-81
2022/07/12 06:59:26;;;;;;;;;;;;;;;20.66;62.03;101056.81;1767546;81;21165;-81
2022/07/12 07:01:55;;;;;;;;;;;;;;;20.81;61.72;101057.33;1762011;81;20242;-81
2022/07/12 07:04:20;;;;;;;;;;;;;;;20.89;61.41;101058.42;1763203;80;20140;-81
2022/07/12 07:06:46;;;;;;;;;;;;;;;20.98;61.09;101059.79;1766464;81;20477;-81
2022/07/12 07:09:12;;;;;;;;;;;;;;;20.92;60.56;101056.62;1765388;81;20201;-81
2022/07/12 07:11:38;;;;;;;;;;;;;;;20.96;60.37;101064.62;1764982;81;22160;-81
2022/07/12 07:14:04;;;;;;;;;;;;;;;21.08;60.09;101060.11;1763262;81;20167;-81
2022/07/12 07:16:30;;;;;;;;;;;;;;;21.13;59.82;101057.61;1766419;80;20270;-81
2022/07/12 07:18:56;;;;;;;;;;;;;;;21.31;59.74;101068.50;1757944;81;20581;-81
2022/07/12 07:21:21;;;;;;;;;;;;;;;21.43;59.39;101062.62;1729277;80;20195;-81
2022/07/12 07:23:47;;;;;;;;;;;;;;;21.49;59.13;101056.84;1761995;81;21344;-81
2022/07/12 07:26:13;;;;;;;;;;;;;;;21.53;58.71;101070.78;1759932;81;20406;-82
2022/07/12 07:31:23;;;;;;;;;;;;;;;21.43;57.91;101062.34;1757931;80;20559;-82
2022/07/12 07:33:49;;;;;;;;;;;;;;;21.46;57.69;101064.59;1760433;80;20456;-82
2022/07/12 07:36:15;;;;;;;;;;;;;;;21.59;57.44;101067.16;1765009;81;21626;-82
2022/07/12 07:38:41;;;;;;;;;;;;;;;21.69;57.32;101057.44;1762771;80;20194;-82
2022/07/12 07:41:07;;;;;;;;;;;;;;;21.92;57.27;101062.19;1758739;80;20183;-82
2022/07/12 07:43:33;;;;;;;;;;;;;;;22.17;57.13;101061.55;1763473;80;20826;-82
2022/07/12 07:46:01;;;;;;;;;;;;;;;22.20;56.83;101057.01;1753768;80;20432;-82
2022/07/12 07:48:28;;;;;;;;;;;;;;;22.20;56.49;101056.20;1758880;80;22442;-81
2022/07/12 07:50:53;;;;;;;;;;;;;;;22.12;56.09;101055.99;1756459;80;20171;-81
2022/07/12 07:53:19;;;;;;;;;;;;;;;22.02;55.95;101054.88;1759036;81;20266;-81
2022/07/12 07:55:45;;;;;;;;;;;;;;;22.30;55.98;101053.77;1767484;81;21009;-81
2022/07/12 07:58:11;;;;;;;;;;;;;;;22.40;55.60;101052.14;1762089;80;20242;-82
2022/07/12 08:00:37;;;;;;;;;;;;;;;22.30;55.12;101044.25;1757321;81;21769;-82
2022/07/12 08:03:03;;;;;;;;;;;;;;;22.22;54.74;101053.55;1760374;81;20861;-83
2022/07/12 08:05:28;;;;;;;;;;;;;;;22.30;54.60;101054.59;1765459;80;20735;-83
2022/07/12 08:07:54;;;;;;;;;;;;;;;22.37;54.39;101058.05;1772623;81;20953;-83
2022/07/12 08:10:20;;;;;;;;;;;;;;;22.43;54.11;101052.73;1764401;80;20160;-83
2022/07/12 08:12:46;;;;;;;;;;;;;;;22.45;53.80;101050.63;1757322;81;21775;-83
2022/07/12 08:15:12;;;;;;;;;;;;;;;22.61;53.68;101058.11;1760969;80;20619;-83
2022/07/12 08:17:38;;;;;;;;;;;;;;;22.63;53.14;101046.45;1757278;81;20221;-83
2022/07/12 08:20:05;;;;;;;;;;;;;;;22.66;52.90;101046.02;1758373;80;20312;-83
2022/07/12 08:22:30;;;;;;;;;;;;;;;22.88;52.84;101048.48;1759795;81;20225;-83
2022/07/12 08:24:56;;;;;;;;;;;;;;;23.00;52.68;101043.90;1758717;80;21794;-84
2022/07/12 08:27:22;;;;;;;;;;;;;;;23.18;52.52;101051.95;1763080;81;20834;-84
2022/07/12 08:29:48;;;;;;;;;;;;;;;23.23;52.33;101043.05;1764002;81;20215;-84
2022/07/12 08:32:14;;;;;;;;;;;;;;;23.34;52.21;101047.67;1757564;81;20436;-84
2022/07/12 08:34:40;;;;;;;;;;;;;;;23.33;51.87;101045.48;1756863;80;20191;-84
2022/07/12 08:37:06;;;;;;;;;;;;;;;23.32;51.62;101047.09;1733792;82;21724;-84
2022/07/12 08:39:31;;;;;;;;;;;;;;;23.32;51.34;101046.56;1749654;81;20752;-84
2022/07/12 08:41:57;;;;;;;;;;;;;;;23.44;51.22;101043.84;1757154;80;20271;-85
2022/07/12 08:44:23;;;;;;;;;;;;;;;23.62;51.11;101039.62;1756337;80;20448;-85
2022/07/12 08:46:49;;;;;;;;;;;;;;;23.57;50.51;101044.14;1760966;80;20846;-85
2022/07/12 08:49:16;;;;;;;;;;;;;;;23.53;50.21;101045.68;1747871;81;22640;-85
2022/07/12 08:51:42;;;;;;;;;;;;;;;23.54;50.03;101045.98;1757651;80;21108;-85
2022/07/12 08:54:09;;;;;;;;;;;;;;;23.55;49.54;101047.62;1738259;81;20156;-85
2022/07/12 08:56:43;;;;;;;;;;;;;;;23.60;49.25;101043.66;1753759;80;20381;-85
2022/07/12 08:59:11;;;;;;;;;;;;;;;23.49;48.96;101039.05;1761989;80;20328;-85
2022/07/12 09:01:49;;;;;;;;;;;;;;;23.33;48.69;101038.67;1751722;81;21402;-85
2022/07/12 09:04:23;;;;;;;;;;;;;;;23.35;48.48;101051.53;1755828;81;20201;-84
2022/07/12 09:06:49;;;;;;;;;;;;;;;23.47;48.26;101038.47;1761383;80;20173;-84
2022/07/12 09:09:28;;;;;;;;;;;;;;;23.44;48.02;101044.37;1734363;81;20471;-84
2022/07/12 09:11:54;;;;;;;;;;;;;;;23.36;47.81;101038.19;1753386;81;20171;-84
2022/07/12 09:14:20;;;;;;;;;;;;;;;23.42;47.53;101041.07;1748706;81;22045;-84
2022/07/12 09:17:12;;;;;;;;;;;;;;;23.55;47.51;101038.92;1753708;81;20724;-84
2022/07/12 09:19:37;;;;;;;;;;;;;;;23.75;47.40;101039.34;1743034;81;20200;-84
2022/07/12 09:22:05;;;;;;;;;;;;;;;23.74;46.71;101049.13;1755618;80;21064;-84
2022/07/12 09:24:31;;;;;;;;;;;;;;;23.67;46.33;101037.02;1750478;81;20163;-84
2022/07/12 09:27:02;;;;;;;;;;;;;;;23.91;46.21;101039.66;1762233;80;21813;-85
2022/07/12 09:29:28;;;;;;;;;;;;;;;23.86;45.76;101047.19;1763548;81;20138;-83
2022/07/12 09:37:31;;;;;;;;;;;;;;;23.66;45.22;101042.69;1765568;80;20103;-85
2022/07/12 09:39:57;;;;;;;;;;;;;;;23.98;45.11;101038.45;1715651;81;21931;-85
2022/07/12 09:42:23;;;;;;;;;;;;;;;23.96;44.99;101040.58;1766351;81;20229;-83
2022/07/12 09:44:49;;;;;;;;;;;;;;;23.83;44.88;101032.69;1762218;81;20184;-84
2022/07/12 09:47:18;;;;;;;;;;;;;;;23.53;44.85;101041.59;1770880;81;20753;-83
2022/07/12 09:49:45;;;;;;;;;;;;;;;23.31;44.95;101038.09;1761154;81;20423;-84
2022/07/12 09:52:12;;;;;;;;;;;;;;;23.36;45.17;101035.47;1760296;80;21756;-83
2022/07/12 09:54:40;;;;;;;;;;;;;;;23.66;45.13;101041.33;1768304;80;20176;-84
2022/07/12 09:57:10;;;;;;;;;;;;;;;23.45;44.88;101036.51;1750942;80;20925;-84
2022/07/12 09:59:36;;;;;;;;;;;;;;;23.36;45.00;101040.91;1754876;81;20481;-84
2022/07/12 10:02:05;;;;;;;;;;;;;;;23.27;44.71;101038.27;1772896;81;20152;-84
2022/07/12 10:04:30;;;;;;;;;;;;;;;23.13;44.72;101038.74;1767436;80;21641;-84
2022/07/12 10:06:57;;;;;;;;;;;;;;;23.05;44.68;101035.84;1752312;80;20539;-84
2022/07/12 10:09:23;;;;;;;;;;;;;;;23.06;44.81;101036.67;1721208;81;20176;-83
2022/07/12 10:11:49;;;;;;;;;;;;;;;23.03;44.80;101047.50;1720263;81;20326;-84
2022/07/12 10:14:15;;;;;;;;;;;;;;;23.00;44.93;101045.78;1766389;80;20249;-86
2022/07/12 10:16:42;;;;;;;;;;;;;;;23.25;44.80;101047.22;1772862;81;21718;-85
2022/07/12 10:19:32;;;;;;;;;;;;;;;23.64;44.52;101048.92;1766277;80;20195;-84
2022/07/12 10:22:00;;;;;;;;;;;;;;;23.95;44.19;101041.67;1767548;81;20218;-83
2022/07/12 10:24:36;;;;;;;;;;;;;;;23.91;43.86;101048.67;1762199;81;20333;-83
2022/07/12 10:27:20;;;;;;;;;;;;;;;24.04;43.75;101050.27;1758992;81;20460;-83
2022/07/12 10:29:47;;;;;;;;;;;;;;;24.20;43.40;101047.66;1763792;80;21725;-83
2022/07/12 10:32:26;;;;;;;;;;;;;;;24.45;43.25;101039.65;1765865;81;20111;-84
2022/07/12 10:35:00;;;;;;;;;;;;;;;24.72;43.03;101047.48;1766090;81;20211;-84
2022/07/12 10:37:27;;;;;;;;;;;;;;;24.41;42.43;101050.22;1770015;81;20499;-84
2022/07/12 10:40:13;;;;;;;;;;;;;;;23.87;42.29;101046.96;1745633;81;20175;-84
2022/07/12 10:42:59;;;;;;;;;;;;;;;23.63;42.38;101051.34;1763590;80;21896;-84
2022/07/12 10:45:30;;;;;;;;;;;;;;;23.86;42.42;101053.47;1753691;80;20584;-85
2022/07/12 10:47:57;;;;;;;;;;;;;;;24.18;42.42;101051.14;1747756;80;20159;-85
2022/07/12 10:50:44;;;;;;;;;;;;;;;24.38;42.23;101047.16;1763121;80;20325;-84
2022/07/12 10:53:22;;;;;;;;;;;;;;;24.49;42.09;101042.18;1743500;80;20162;-85
2022/07/12 10:56:22;;;;;;;;;;;;;;;24.50;41.83;101046.54;1762015;81;22553;-85
2022/07/12 10:58:57;;;;;;;;;;;;;;;23.93;41.70;101032.89;1761048;81;20167;-85
2022/07/12 11:01:25;;;;;;;;;;;;;;;23.36;41.86;101039.55;1742765;80;20174;-85
2022/07/12 11:03:53;;;;;;;;;;;;;;;23.02;41.92;101051.28;1750238;80;20226;-85
2022/07/12 11:06:24;;;;;;;;;;;;;;;22.87;42.11;101054.98;1776455;80;20212;-86
2022/07/12 11:08:59;;;;;;;;;;;;;;;22.76;42.25;101053.09;1766870;81;21601;-86
2022/07/12 11:11:30;;;;;;;;;;;;;;;22.94;42.53;101048.09;1764420;81;20164;-86
2022/07/12 11:13:57;;;;;;;;;;;;;;;23.29;42.65;101053.02;1757728;80;20164;-85
2022/07/12 11:16:23;;;;;;;;;;;;;;;23.45;42.70;101049.59;1764258;80;21340;-86
2022/07/12 11:18:49;;;;;;;;;;;;;;;23.77;42.74;101041.84;1759761;80;20184;-86
2022/07/12 11:21:15;;;;;;;;;;;;;;;23.98;42.60;101034.37;1763647;81;21862;-85
2022/07/12 11:23:41;;;;;;;;;;;;;;;24.10;42.43;101028.88;1752988;81;20653;-84
2022/07/12 11:26:08;;;;;;;;;;;;;;;24.31;42.52;101023.57;1740634;80;20189;-84
2022/07/12 11:28:34;;;;;;;;;;;;;;;24.79;42.60;101029.87;1751742;80;20335;-84
2022/07/12 11:31:07;;;;;;;;;;;;;;;24.64;41.93;101026.06;1723883;82;20323;-85
2022/07/12 11:33:35;;;;;;;;;;;;;;;24.29;41.26;101025.73;1717619;82;21761;-85
2022/07/12 11:36:06;;;;;;;;;;;;;;;23.82;40.89;101033.75;1723407;81;20288;-85
2022/07/12 11:38:34;;;;;;;;;;;;;;;23.65;40.96;101032.85;1718930;81;20204;-86
2022/07/12 11:41:03;;;;;;;;;;;;;;;23.63;41.15;101032.28;1716431;81;20339;-85
2022/07/12 11:43:29;;;;;;;;;;;;;;;23.78;41.10;101032.08;1718119;83;20180;-85
2022/07/12 11:45:55;;;;;;;;;;;;;;;23.96;41.14;101024.23;1726382;82;21762;-85
2022/07/12 11:48:22;;;;;;;;;;;;;;;24.06;41.18;101016.28;1725674;83;20205;-85
2022/07/12 11:50:50;;;;;;;;;;;;;;;24.23;41.20;101025.88;1720685;81;20156;-85
2022/07/12 11:53:18;;;;;;;;;;;;;;;24.26;41.05;101023.50;1720714;83;20411;-84
2022/07/12 11:55:45;;;;;;;;;;;;;;;24.20;41.00;101006.77;1716971;81;20150;-84
2022/07/12 11:58:11;;;;;;;;;;;;;;;24.24;41.05;101013.92;1708131;82;21696;-85
2022/07/12 12:00:38;;;;;;;;;;;;;;;24.31;41.09;101014.03;1727956;82;20178;-84
2022/07/12 12:03:04;;;;;;;;;;;;;;;24.38;40.83;101010.34;1715285;81;20112;-85
2022/07/12 12:05:30;;;;;;;;;;;;;;;24.48;40.61;101006.43;1725744;83;20454;-85
2022/07/12 12:07:56;;;;;;;;;;;;;;;24.48;40.08;100985.97;1725412;83;20271;-85
2022/07/12 12:10:22;;;;;;;;;;;;;;;24.69;40.21;100990.16;1725922;82;21884;-85
2022/07/12 12:12:52;;;;;;;;;;;;;;;24.89;39.82;100985.58;1726206;83;20894;-84
2022/07/12 12:15:20;;;;;;;;;;;;;;;25.15;39.77;100978.06;1724912;83;20207;-85
2022/07/12 12:18:06;;;;;;;;;;;;;;;24.99;39.41;100985.73;1722662;81;20434;-86
2022/07/12 12:20:38;;;;;;;;;;;;;;;24.80;39.18;100982.96;1688039;83;20175;-85
2022/07/12 12:23:04;;;;;;;;;;;;;;;24.92;39.13;100983.70;1726817;83;21862;-85
2022/07/12 12:25:31;;;;;;;;;;;;;;;24.87;38.46;100975.46;1721605;82;20644;-84
2022/07/12 12:27:58;;;;;;;;;;;;;;;24.97;38.31;100975.61;1727641;81;20207;-83
2022/07/12 12:30:23;;;;;;;;;;;;;;;25.09;37.92;100968.13;1719229;82;20493;-85
2022/07/12 12:32:54;;;;;;;;;;;;;;;25.24;37.98;100970.25;1724479;82;21025;-85
2022/07/12 12:35:22;;;;;;;;;;;;;;;25.20;37.79;100965.83;1697793;83;21938;-85
2022/07/12 12:37:56;;;;;;;;;;;;;;;25.04;37.55;100962.61;1725320;82;20801;-85
2022/07/12 12:40:25;;;;;;;;;;;;;;;25.05;37.45;100975.16;1698943;82;20878;-84
2022/07/12 12:42:51;;;;;;;;;;;;;;;25.11;37.38;100978.27;1744973;82;20293;-85
2022/07/12 12:45:21;;;;;;;;;;;;;;;25.00;36.97;100973.74;1714232;83;20796;-85
2022/07/12 12:47:56;;;;;;;;;;;;;;;25.12;37.01;100964.09;1714351;83;21821;-83
2022/07/12 12:50:45;;;;;;;;;;;;;;;25.31;36.96;100965.42;1746083;80;20158;-84
2022/07/12 12:53:13;;;;;;;;;;;;;;;25.13;36.87;100972.01;1753667;81;20190;-84